Petersburgh, NY (12138)

4:19 AM EST on December 29, 2014 (GMT -0500)
Grafton | Change Station
CLOSE
Current Station
Personal Weather Station
Location: Cropseyville, NY
Elevation: 1450 ft
Nearby Weather Stations

Elev 1450 ft 42.78 °N, 73.48 °W | Updated 4 minutes ago

Overcast
Overcast
29.1 °F
Feels Like 29 °F
N
0.0
Wind Variable Wind from East
Gusts 0.0 mph

Today
High -- | Low -- °F
--% Chance of Precip.
Yesterday
High -- | Low -- °F
Precip. -- in
7:23 AM 4:27 PM
First Quarter, 57% visible
Pressure 30.08 in
Visibility 10.0 miles
Clouds Few 2700 ft
Mostly Cloudy 3500 ft
Mostly Cloudy 5500 ft
Windchill 29 °F
Dew Point 20 °F
Humidity 69%
Rainfall 0.00 in
Snow Depth Not available.
UV 0 out of 12
Pollen .10 out of 12
Air Quality Not available.
Flu Activity Not available.
METAR KAQW 290852Z AUTO 26007KT 10SM FEW027 BKN035 BKN055 01/M04 A3006 RMK AO2 SLP185 T00061044 51010

More Conditions Fewer Conditions

Pressure 30.08 in
Visibility 10.0 miles
Clouds Few 2700 ft
Mostly Cloudy 3500 ft
Mostly Cloudy 5500 ft
Windchill 29 °F
Dew Point 20 °F
Humidity 69%
Rainfall 0.00 in
Snow Depth Not available.
UV 0 out of 12
Pollen .10 out of 12
Air Quality Not available.
Flu Activity Not available.
METAR KAQW 290852Z AUTO 26007KT 10SM FEW027 BKN035 BKN055 01/M04 A3006 RMK AO2 SLP185 T00061044 51010

More Conditions Fewer Conditions

10-Day Weather Forecast

Almanac

Astronomy

Dec. 29, 2014 Rise Set
Actual Time
Civil Twilight
Nautical Twilight
Astronomical Twilight
Moon
Length of Visible Light
Length of Day
Tomorrow will be .
, % of the Moon is Illuminated

Today's Extremes

State Highs State Lows

Community

WunderPhotos

Upload Photos

1,781,559 photos uploaded!

WunderBlogs® & News

Nearby

Air Quality

  Air Quality AQ Index Pollutant
Not available.

Snow Depth

Station Depth Elevation

Earthquake Activity

City Distance Mag. Time & Date
Minimum magnitude displayed is 2.5.

Coastal Water Temperatures

Place Temperature

Nearby Weather Stations